createdAt,value
2023-05-05T00:01:48.314Z,21.71
2023-05-05T00:04:15.210Z,21.79
2023-05-05T00:06:42.331Z,22.06
2023-05-05T00:09:09.084Z,21.94
2023-05-05T00:11:35.836Z,22.00
2023-05-05T00:14:02.723Z,21.78
2023-05-05T00:16:29.592Z,21.55
2023-05-05T00:18:56.572Z,21.87
2023-05-05T00:21:23.403Z,21.47
2023-05-05T00:23:50.408Z,21.70
2023-05-05T00:26:17.241Z,21.59
2023-05-05T00:28:48.274Z,21.40
2023-05-05T00:31:18.356Z,21.34
2023-05-05T00:33:45.413Z,21.13
2023-05-05T00:36:12.300Z,21.58
2023-05-05T00:38:39.342Z,21.51
2023-05-05T00:41:06.246Z,21.15
2023-05-05T00:43:32.904Z,21.29
2023-05-05T00:46:06.838Z,21.58
2023-05-05T00:48:34.047Z,21.71
2023-05-05T00:51:00.879Z,21.78
2023-05-05T00:53:28.482Z,21.70
2023-05-05T00:55:55.285Z,21.74
2023-05-05T00:58:22.232Z,21.78
2023-05-05T01:00:49.263Z,21.76
2023-05-05T01:03:16.526Z,21.50
2023-05-05T01:05:49.848Z,21.57
2023-05-05T01:08:55.168Z,21.49
2023-05-05T01:12:11.375Z,21.37
2023-05-05T01:14:56.785Z,21.34
2023-05-05T01:17:31.752Z,21.37
2023-05-05T01:20:36.275Z,21.26
2023-05-05T01:23:06.801Z,20.96
2023-05-05T01:26:03.403Z,20.97
2023-05-05T01:29:12.632Z,20.88
2023-05-05T01:31:44.066Z,20.69
2023-05-05T01:34:12.503Z,20.71
2023-05-05T01:36:44.531Z,20.57
2023-05-05T01:39:14.984Z,20.74
2023-05-05T01:41:49.633Z,20.82
2023-05-05T01:44:17.082Z,20.77
2023-05-05T01:46:47.609Z,20.60
2023-05-05T01:49:15.765Z,20.65
2023-05-05T01:51:42.817Z,20.48
2023-05-05T01:54:09.814Z,20.44
2023-05-05T01:56:39.266Z,20.53
2023-05-05T01:59:07.110Z,20.41
2023-05-05T02:01:36.187Z,20.09
2023-05-05T02:04:03.570Z,20.14
2023-05-05T02:06:32.460Z,20.06
2023-05-05T02:08:59.517Z,20.21
2023-05-05T02:11:27.089Z,20.15
2023-05-05T02:13:54.715Z,20.27
2023-05-05T02:16:22.803Z,20.42
2023-05-05T02:18:50.658Z,20.38
2023-05-05T02:21:20.644Z,20.48
2023-05-05T02:23:52.041Z,20.28
2023-05-05T02:26:21.871Z,19.98
2023-05-05T02:28:52.937Z,19.90
2023-05-05T02:31:21.252Z,19.50
2023-05-05T02:33:49.996Z,19.32
2023-05-05T02:36:23.058Z,19.07
2023-05-05T02:38:58.120Z,19.05
2023-05-05T02:41:28.774Z,19.40
2023-05-05T02:43:57.994Z,19.18
2023-05-05T02:46:25.767Z,19.33
2023-05-05T02:48:52.579Z,19.38
2023-05-05T02:51:19.289Z,19.42
2023-05-05T02:53:46.494Z,19.55
2023-05-05T02:56:26.205Z,19.66
2023-05-05T02:59:16.451Z,19.16
2023-05-05T03:01:46.320Z,19.55
2023-05-05T03:04:54.277Z,19.24
2023-05-05T03:07:26.623Z,18.55
2023-05-05T03:10:09.940Z,18.50
2023-05-05T03:12:58.491Z,18.33
2023-05-05T03:15:36.955Z,18.51
2023-05-05T03:18:06.180Z,18.67
2023-05-05T03:20:33.732Z,18.46
2023-05-05T03:23:06.416Z,18.38
2023-05-05T03:25:47.150Z,18.36
2023-05-05T03:28:21.982Z,18.61
2023-05-05T03:30:48.734Z,18.81
2023-05-05T03:33:18.157Z,18.92
2023-05-05T03:35:45.001Z,18.86
2023-05-05T03:38:13.242Z,18.92
2023-05-05T03:40:44.585Z,18.83
2023-05-05T03:43:15.794Z,18.72
2023-05-05T03:45:43.045Z,18.83
2023-05-05T03:48:10.627Z,18.80
2023-05-05T03:50:39.276Z,18.97
2023-05-05T03:53:06.016Z,18.93
2023-05-05T03:55:33.412Z,18.66
2023-05-05T03:58:00.180Z,19.06
2023-05-05T04:00:27.579Z,19.41
2023-05-05T04:02:55.124Z,19.51
2023-05-05T04:05:24.159Z,19.83
2023-05-05T04:07:51.548Z,19.94
2023-05-05T04:10:19.852Z,19.88
2023-05-05T04:12:46.769Z,19.70
2023-05-05T04:15:13.593Z,19.68
2023-05-05T04:17:40.794Z,19.43
2023-05-05T04:20:09.560Z,19.57
2023-05-05T04:22:36.666Z,19.32
2023-05-05T04:25:04.246Z,19.25
2023-05-05T04:27:31.142Z,18.86
2023-05-05T04:29:59.857Z,18.41
2023-05-05T04:32:27.128Z,18.47
2023-05-05T04:34:54.439Z,18.34
2023-05-05T04:37:22.400Z,18.81
2023-05-05T04:39:49.286Z,18.68
2023-05-05T04:42:16.235Z,19.08
2023-05-05T04:44:43.083Z,19.27
2023-05-05T04:47:11.428Z,19.27
2023-05-05T04:49:39.340Z,19.29
2023-05-05T04:52:07.281Z,19.31
2023-05-05T04:54:37.507Z,19.40
2023-05-05T04:57:04.280Z,19.11
2023-05-05T04:59:31.032Z,19.11
2023-05-05T05:01:57.862Z,19.12
2023-05-05T05:04:27.255Z,18.91
2023-05-05T05:06:54.899Z,18.97
2023-05-05T05:09:22.680Z,18.83
2023-05-05T05:11:49.338Z,18.69
2023-05-05T05:14:16.201Z,18.26
2023-05-05T05:16:43.093Z,18.41
2023-05-05T05:19:11.146Z,18.73
2023-05-05T05:21:37.840Z,18.74
2023-05-05T05:24:05.103Z,18.86
2023-05-05T05:26:32.026Z,18.63
2023-05-05T05:28:59.048Z,18.83
2023-05-05T05:31:25.904Z,18.77
2023-05-05T05:33:52.894Z,18.63
2023-05-05T05:36:19.754Z,18.57
2023-05-05T05:38:46.505Z,18.60
2023-05-05T05:41:13.782Z,18.68
2023-05-05T05:43:41.590Z,19.02
2023-05-05T05:46:09.451Z,18.73
2023-05-05T05:48:38.604Z,19.13
2023-05-05T05:51:05.705Z,19.38
2023-05-05T05:53:32.980Z,20.04
2023-05-05T05:56:01.412Z,22.08
2023-05-05T05:58:28.747Z,23.01
2023-05-05T06:00:55.702Z,24.69
2023-05-05T06:03:22.750Z,24.86
2023-05-05T06:05:50.535Z,24.63
2023-05-05T06:08:18.966Z,24.10
2023-05-05T06:10:50.680Z,23.58
2023-05-05T06:13:19.862Z,23.13
2023-05-05T06:15:49.605Z,22.07
2023-05-05T06:18:17.791Z,20.95
2023-05-05T06:20:45.083Z,20.01
2023-05-05T06:23:14.155Z,20.15
2023-05-05T06:25:48.996Z,20.49
2023-05-05T06:28:16.365Z,20.09
2023-05-05T06:30:43.434Z,20.50
2023-05-05T06:33:10.580Z,21.11
2023-05-05T06:35:37.636Z,22.02
2023-05-05T06:38:06.748Z,22.37
2023-05-05T06:40:38.591Z,21.36
2023-05-05T06:43:06.390Z,20.70
2023-05-05T06:45:41.947Z,20.78
2023-05-05T06:48:19.054Z,20.60
2023-05-05T06:50:46.665Z,20.73
2023-05-05T06:53:16.177Z,20.26
2023-05-05T06:55:47.934Z,20.32
2023-05-05T06:58:14.990Z,20.34
2023-05-05T07:00:44.442Z,20.73
2023-05-05T07:03:12.832Z,21.40
2023-05-05T07:05:39.793Z,21.07
2023-05-05T07:08:10.129Z,21.38
2023-05-05T07:10:44.173Z,21.19
2023-05-05T07:13:25.144Z,21.12
2023-05-05T07:16:04.906Z,21.49
2023-05-05T07:18:32.014Z,21.28
2023-05-05T07:20:59.164Z,21.71
2023-05-05T07:23:27.377Z,22.44
2023-05-05T07:25:55.070Z,21.94
2023-05-05T07:28:22.495Z,21.82
2023-05-05T07:30:49.511Z,21.53
2023-05-05T07:33:19.266Z,22.29
2023-05-05T07:35:46.504Z,22.30
2023-05-05T07:38:13.322Z,22.24
2023-05-05T07:40:40.303Z,22.16
2023-05-05T07:43:07.500Z,22.25
2023-05-05T07:45:36.016Z,22.18
2023-05-05T07:48:02.892Z,22.01
2023-05-05T07:50:30.158Z,22.05
2023-05-05T07:53:06.231Z,21.79
2023-05-05T07:55:41.017Z,21.44
2023-05-05T07:58:08.552Z,21.01
2023-05-05T08:00:37.048Z,20.94
2023-05-05T08:03:04.054Z,21.08
2023-05-05T08:05:31.069Z,21.47
2023-05-05T08:07:57.994Z,21.94
2023-05-05T08:10:26.666Z,21.02
2023-05-05T08:12:54.939Z,21.29
2023-05-05T08:15:21.989Z,21.49
2023-05-05T08:17:53.084Z,21.67
2023-05-05T08:20:27.387Z,21.35
2023-05-05T08:22:54.366Z,22.30
2023-05-05T08:25:21.478Z,22.05
2023-05-05T08:27:48.606Z,21.98
2023-05-05T08:30:17.345Z,21.78
2023-05-05T08:32:44.331Z,21.87
2023-05-05T08:35:12.202Z,21.45
2023-05-05T08:37:39.738Z,21.84
2023-05-05T08:40:07.528Z,22.06
2023-05-05T08:42:38.594Z,22.12
2023-05-05T08:45:08.521Z,22.37
2023-05-05T08:47:36.859Z,21.30
2023-05-05T08:50:05.892Z,21.56
2023-05-05T08:52:45.953Z,21.70
2023-05-05T08:55:29.028Z,21.54
2023-05-05T08:57:57.627Z,21.02
2023-05-05T09:00:26.625Z,20.66
2023-05-05T09:02:56.934Z,21.15
2023-05-05T09:05:27.015Z,21.37
2023-05-05T09:07:54.070Z,21.80
2023-05-05T09:10:21.566Z,21.51
2023-05-05T09:12:51.194Z,21.13
2023-05-05T09:15:18.390Z,21.06
2023-05-05T09:17:45.369Z,21.18
2023-05-05T09:20:13.660Z,21.01
2023-05-05T09:22:45.074Z,21.60
2023-05-05T09:25:16.445Z,21.89
2023-05-05T09:27:48.119Z,21.66
2023-05-05T09:30:18.028Z,21.62
2023-05-05T09:32:46.833Z,21.77
2023-05-05T09:35:14.224Z,21.26
2023-05-05T09:37:41.209Z,21.07
2023-05-05T09:40:09.480Z,21.63
2023-05-05T09:42:40.135Z,21.25
2023-05-05T09:45:22.008Z,21.00
2023-05-05T09:47:51.968Z,21.44
2023-05-05T09:50:22.450Z,21.32
2023-05-05T09:53:02.234Z,20.86
2023-05-05T09:55:31.183Z,21.25
2023-05-05T09:58:16.928Z,20.63
2023-05-05T10:00:43.884Z,20.53
2023-05-05T10:03:10.792Z,20.39
2023-05-05T10:05:52.059Z,20.70
2023-05-05T10:08:28.500Z,20.33
2023-05-05T10:10:56.789Z,20.98
2023-05-05T10:13:25.147Z,21.10
2023-05-05T10:15:57.252Z,21.41
2023-05-05T10:18:26.209Z,21.45
2023-05-05T10:21:01.311Z,21.87
2023-05-05T10:23:50.533Z,21.64
2023-05-05T10:26:20.206Z,22.10
2023-05-05T10:28:56.942Z,21.42
2023-05-05T10:31:37.500Z,20.87
2023-05-05T10:34:06.713Z,21.24
2023-05-05T10:36:34.337Z,21.67
2023-05-05T10:39:01.592Z,21.91
2023-05-05T10:41:28.797Z,21.80
2023-05-05T10:43:57.411Z,20.96
2023-05-05T10:46:26.183Z,21.58
2023-05-05T10:49:12.388Z,21.02
2023-05-05T10:51:41.173Z,21.64
2023-05-05T10:56:44.148Z,21.88
2023-05-05T10:59:36.177Z,21.17
2023-05-05T11:02:25.882Z,21.13
2023-05-05T11:05:23.604Z,21.78
2023-05-05T11:07:51.544Z,21.65
2023-05-05T11:10:23.755Z,21.81
2023-05-05T11:12:51.351Z,20.61
2023-05-05T11:15:24.327Z,20.77
2023-05-05T11:17:51.429Z,21.35
2023-05-05T11:20:18.702Z,21.28
2023-05-05T11:23:03.902Z,21.78
2023-05-05T11:25:51.980Z,21.42
2023-05-05T11:28:19.594Z,21.45
2023-05-05T11:31:00.525Z,21.38
2023-05-05T11:33:30.316Z,20.78
2023-05-05T11:35:57.653Z,20.51
2023-05-05T11:38:49.704Z,21.12
2023-05-05T11:41:30.707Z,20.69
2023-05-05T11:44:13.515Z,20.78
2023-05-05T11:47:06.856Z,20.90
2023-05-05T11:49:35.266Z,20.94
2023-05-05T11:52:13.532Z,20.58
2023-05-05T11:54:50.853Z,21.20
2023-05-05T11:57:21.756Z,21.02
2023-05-05T11:59:57.477Z,20.82
2023-05-05T12:02:26.545Z,21.17
2023-05-05T12:04:54.333Z,20.43
2023-05-05T12:07:25.863Z,20.87
2023-05-05T12:09:53.118Z,20.45
2023-05-05T12:12:20.397Z,21.36
2023-05-05T12:14:48.005Z,21.72
2023-05-05T12:17:14.840Z,21.34
2023-05-05T12:19:52.027Z,21.52
2023-05-05T12:22:25.861Z,22.13
2023-05-05T12:25:06.503Z,22.37
2023-05-05T12:27:35.491Z,22.17
2023-05-05T12:30:16.781Z,22.39
2023-05-05T12:32:44.425Z,22.46
2023-05-05T12:35:11.759Z,22.53
2023-05-05T12:37:38.975Z,23.12
2023-05-05T12:40:06.726Z,23.52
2023-05-05T12:42:39.088Z,22.74
2023-05-05T12:45:08.258Z,22.94
2023-05-05T12:47:36.828Z,22.65
2023-05-05T12:50:04.050Z,22.75
2023-05-05T12:52:44.235Z,22.79
2023-05-05T12:55:11.917Z,22.22
2023-05-05T12:57:39.636Z,22.33
2023-05-05T13:00:17.920Z,22.76
2023-05-05T13:02:47.855Z,22.71
2023-05-05T13:05:14.607Z,22.69
2023-05-05T13:07:51.979Z,23.12
2023-05-05T13:10:18.832Z,22.24
2023-05-05T13:12:45.658Z,22.26
2023-05-05T13:15:12.776Z,22.73
2023-05-05T13:17:40.042Z,22.45
2023-05-05T13:20:08.690Z,22.32
2023-05-05T13:22:36.374Z,22.29
2023-05-05T13:25:03.224Z,21.97
2023-05-05T13:27:30.115Z,21.17
2023-05-05T13:29:56.862Z,21.80
2023-05-05T13:32:23.734Z,22.55
2023-05-05T13:34:50.615Z,22.39
2023-05-05T13:37:17.410Z,22.08
2023-05-05T13:39:44.653Z,22.25
2023-05-05T13:42:11.407Z,22.02
2023-05-05T13:44:38.351Z,21.94
2023-05-05T13:47:05.811Z,22.12
2023-05-05T13:49:32.721Z,21.78
2023-05-05T13:51:59.904Z,21.90
2023-05-05T13:54:27.136Z,21.88
2023-05-05T13:56:53.911Z,21.67
2023-05-05T13:59:20.754Z,22.62
2023-05-05T14:01:47.544Z,21.87
2023-05-05T14:04:14.437Z,21.97
2023-05-05T14:06:41.179Z,21.49
2023-05-05T14:09:08.598Z,21.44
2023-05-05T14:11:35.606Z,22.15
2023-05-05T14:14:02.991Z,22.57
2023-05-05T14:16:29.693Z,21.90
2023-05-05T14:18:56.503Z,21.52
2023-05-05T14:21:23.284Z,22.26
2023-05-05T14:23:50.069Z,22.03
2023-05-05T14:26:17.345Z,22.08
2023-05-05T14:28:44.506Z,22.56
2023-05-05T14:31:11.382Z,22.68
2023-05-05T14:33:38.215Z,22.70
2023-05-05T14:36:05.219Z,22.68
2023-05-05T14:38:32.150Z,21.93
2023-05-05T14:40:58.942Z,22.02
2023-05-05T14:43:25.718Z,22.16
2023-05-05T14:45:53.115Z,22.15
2023-05-05T14:48:22.743Z,22.97
2023-05-05T14:50:50.260Z,22.86
2023-05-05T14:53:19.114Z,22.63
2023-05-05T14:55:45.933Z,22.85
2023-05-05T14:58:12.700Z,22.42
2023-05-05T15:00:39.493Z,22.22
2023-05-05T15:03:06.302Z,22.96
2023-05-05T15:05:33.112Z,22.55
2023-05-05T15:08:00.172Z,22.12
2023-05-05T15:10:26.953Z,23.14
2023-05-05T15:12:53.618Z,22.55
2023-05-05T15:15:20.527Z,22.31
2023-05-05T15:17:47.487Z,22.77
2023-05-05T15:20:16.903Z,22.62
2023-05-05T15:22:43.789Z,22.41
2023-05-05T15:25:12.526Z,22.20
2023-05-05T15:27:39.910Z,23.04
2023-05-05T15:30:07.441Z,22.68
2023-05-05T15:32:34.665Z,22.84
2023-05-05T15:35:01.783Z,22.81
2023-05-05T15:37:29.017Z,23.23
2023-05-05T15:39:56.358Z,23.06
2023-05-05T15:42:23.410Z,22.70
2023-05-05T15:44:50.570Z,22.65
2023-05-05T15:47:17.776Z,23.02
2023-05-05T15:49:45.413Z,22.43
2023-05-05T15:52:15.853Z,22.60
2023-05-05T15:54:42.643Z,23.29
2023-05-05T15:57:09.666Z,22.75
2023-05-05T15:59:36.901Z,21.86
2023-05-05T16:02:03.629Z,21.95
2023-05-05T16:04:30.531Z,22.01
2023-05-05T16:06:58.066Z,22.25
2023-05-05T16:09:24.819Z,21.98
2023-05-05T16:11:53.701Z,22.28
2023-05-05T16:14:20.524Z,21.80
2023-05-05T16:16:47.677Z,22.53
2023-05-05T16:19:14.582Z,21.96
2023-05-05T16:21:41.486Z,21.85
2023-05-05T16:24:08.257Z,22.16
2023-05-05T16:26:36.211Z,22.05
2023-05-05T16:29:03.025Z,21.79
2023-05-05T16:31:29.839Z,22.35
2023-05-05T16:33:57.270Z,21.87
2023-05-05T16:36:24.183Z,21.82
2023-05-05T16:38:50.972Z,21.51
2023-05-05T16:41:18.254Z,22.59
2023-05-05T16:43:46.630Z,22.10
2023-05-05T16:46:13.411Z,22.42
2023-05-05T16:48:40.552Z,21.75
2023-05-05T16:51:07.430Z,22.01
2023-05-05T16:53:34.346Z,22.77
2023-05-05T16:56:01.914Z,22.17
2023-05-05T16:58:28.778Z,22.11
2023-05-05T17:00:55.683Z,22.27
2023-05-05T17:03:22.789Z,22.69
2023-05-05T17:05:50.465Z,23.05
2023-05-05T17:08:17.479Z,22.70
2023-05-05T17:10:45.156Z,23.10
2023-05-05T17:13:13.475Z,22.96
2023-05-05T17:15:40.685Z,22.81
2023-05-05T17:18:08.338Z,23.02
2023-05-05T17:20:36.347Z,23.17
2023-05-05T17:23:03.328Z,23.08
2023-05-05T17:25:30.182Z,22.40
2023-05-05T17:27:57.604Z,22.38
2023-05-05T17:30:24.542Z,22.79
2023-05-05T17:32:51.537Z,22.51
2023-05-05T17:35:18.681Z,21.95
2023-05-05T17:37:45.541Z,22.60
2023-05-05T17:40:14.105Z,22.66
2023-05-05T17:42:40.931Z,22.91
2023-05-05T17:45:11.917Z,22.77
2023-05-05T17:47:39.292Z,22.80
2023-05-05T17:50:06.678Z,22.17
2023-05-05T17:52:33.446Z,22.28
2023-05-05T17:55:00.258Z,22.30
2023-05-05T17:57:27.191Z,22.34
2023-05-05T17:59:53.976Z,22.53
2023-05-05T18:02:21.013Z,22.80
2023-05-05T18:04:47.982Z,22.73
2023-05-05T18:07:15.142Z,21.98
2023-05-05T18:09:42.255Z,22.10
2023-05-05T18:12:09.258Z,22.38
2023-05-05T18:14:36.254Z,22.34
2023-05-05T18:17:03.470Z,22.36
2023-05-05T18:19:30.363Z,21.88
2023-05-05T18:21:59.976Z,22.17
2023-05-05T18:24:27.628Z,22.45
2023-05-05T18:26:56.721Z,22.53
2023-05-05T18:29:23.555Z,22.58
2023-05-05T18:31:53.828Z,22.50
2023-05-05T18:34:21.230Z,22.37
2023-05-05T18:36:50.222Z,22.45
2023-05-05T18:39:17.982Z,22.45
2023-05-05T18:41:45.090Z,22.55
2023-05-05T18:44:12.413Z,22.24
2023-05-05T18:46:39.329Z,22.47
2023-05-05T18:49:06.413Z,22.35
2023-05-05T18:51:33.136Z,22.30
2023-05-05T18:54:01.018Z,22.39
2023-05-05T18:56:27.934Z,22.42
2023-05-05T18:58:55.012Z,21.97
2023-05-05T19:01:22.181Z,22.05
2023-05-05T19:03:49.551Z,22.05
2023-05-05T19:06:17.314Z,21.65
2023-05-05T19:08:45.228Z,21.29
2023-05-05T19:11:14.792Z,21.65
2023-05-05T19:13:41.896Z,21.84
2023-05-05T19:16:08.765Z,21.77
2023-05-05T19:18:35.503Z,21.91
2023-05-05T19:21:05.228Z,21.95
2023-05-05T19:23:32.261Z,22.02
2023-05-05T19:25:59.043Z,21.90
2023-05-05T19:28:25.853Z,21.86
2023-05-05T19:30:52.571Z,21.87
2023-05-05T19:33:19.292Z,21.83
2023-05-05T19:35:46.128Z,21.77
2023-05-05T19:38:12.876Z,21.88
2023-05-05T19:40:40.789Z,21.92
2023-05-05T19:43:07.956Z,21.79
2023-05-05T19:45:34.848Z,21.67
2023-05-05T19:48:02.572Z,21.76
2023-05-05T19:50:30.459Z,21.50
2023-05-05T19:52:58.102Z,21.50
2023-05-05T19:55:24.972Z,21.38
2023-05-05T19:57:52.247Z,21.27
2023-05-05T20:00:19.860Z,20.76
2023-05-05T20:02:50.141Z,20.89
2023-05-05T20:05:23.058Z,20.79
2023-05-05T20:07:51.523Z,20.80
2023-05-05T20:10:18.531Z,20.42
2023-05-05T20:12:49.269Z,20.50
2023-05-05T20:15:20.448Z,20.24
2023-05-05T20:17:48.274Z,20.22
2023-05-05T20:20:17.225Z,20.22
2023-05-05T20:22:45.154Z,20.32
2023-05-05T20:25:12.710Z,20.18
2023-05-05T20:27:39.628Z,20.74
2023-05-05T20:30:07.917Z,20.34
2023-05-05T20:32:35.020Z,20.31
2023-05-05T20:35:02.254Z,20.51
2023-05-05T20:37:29.237Z,20.17
2023-05-05T20:39:57.478Z,20.41
2023-05-05T20:42:25.634Z,20.32
2023-05-05T20:44:52.489Z,20.29
2023-05-05T20:47:19.342Z,20.48
2023-05-05T20:49:46.213Z,20.33
2023-05-05T20:52:13.003Z,20.15
2023-05-05T20:54:39.928Z,20.17
2023-05-05T20:57:07.236Z,20.30
2023-05-05T20:59:34.040Z,20.52
2023-05-05T21:02:02.058Z,20.39
2023-05-05T21:04:29.047Z,20.40
2023-05-05T21:06:57.461Z,20.31
2023-05-05T21:09:24.285Z,19.95
2023-05-05T21:11:51.041Z,20.00
2023-05-05T21:14:17.831Z,19.53
2023-05-05T21:16:44.717Z,19.66
2023-05-05T21:19:11.587Z,19.91
2023-05-05T21:21:38.382Z,20.14
2023-05-05T21:24:08.238Z,19.63
2023-05-05T21:26:35.187Z,20.14
2023-05-05T21:29:01.910Z,20.06
2023-05-05T21:31:28.690Z,20.14
2023-05-05T21:33:55.552Z,20.08
2023-05-05T21:36:22.280Z,19.40
2023-05-05T21:38:49.782Z,19.76
2023-05-05T21:41:16.909Z,20.01
2023-05-05T21:43:43.676Z,20.02
2023-05-05T21:46:10.599Z,19.96
2023-05-05T21:48:39.123Z,19.55
2023-05-05T21:51:06.935Z,19.56
2023-05-05T21:53:33.703Z,19.15
2023-05-05T21:56:01.112Z,18.78
2023-05-05T21:58:27.978Z,19.08
2023-05-05T22:01:04.692Z,19.20
2023-05-05T22:03:35.110Z,19.31
2023-05-05T22:06:02.449Z,18.96
2023-05-05T22:08:34.181Z,19.54
2023-05-05T22:11:01.940Z,19.22
2023-05-05T22:13:28.871Z,19.35
2023-05-05T22:16:08.661Z,19.31
2023-05-05T22:18:41.250Z,19.34
2023-05-05T22:21:11.839Z,19.26
2023-05-05T22:23:43.026Z,19.34
2023-05-05T22:26:13.761Z,19.33
2023-05-05T22:28:41.678Z,18.84
2023-05-05T22:31:08.775Z,18.45
2023-05-05T22:33:36.239Z,18.35
2023-05-05T22:36:03.211Z,18.29
2023-05-05T22:38:32.016Z,18.47
2023-05-05T22:41:00.731Z,18.89
2023-05-05T22:43:30.768Z,18.90
2023-05-05T22:45:57.521Z,18.52
2023-05-05T22:48:24.675Z,19.05
2023-05-05T22:50:51.593Z,19.15
2023-05-05T22:53:18.409Z,19.16
2023-05-05T22:55:45.350Z,19.25
2023-05-05T22:58:12.061Z,19.46
2023-05-05T23:00:38.797Z,19.39
2023-05-05T23:03:05.699Z,19.45
2023-05-05T23:05:34.372Z,19.22
2023-05-05T23:08:01.628Z,18.91
2023-05-05T23:10:28.929Z,18.98
2023-05-05T23:12:55.799Z,18.99
2023-05-05T23:15:22.986Z,18.66
2023-05-05T23:17:50.057Z,18.83
2023-05-05T23:20:16.858Z,18.80
2023-05-05T23:22:43.732Z,18.41
2023-05-05T23:25:10.903Z,18.49
2023-05-05T23:27:39.971Z,18.19
2023-05-05T23:30:10.789Z,18.16
2023-05-05T23:32:37.685Z,17.96
2023-05-05T23:35:04.806Z,17.77
2023-05-05T23:37:31.654Z,18.01
2023-05-05T23:39:58.456Z,17.64
2023-05-05T23:42:25.370Z,17.64
2023-05-05T23:44:52.098Z,17.63
2023-05-05T23:47:18.980Z,18.01
2023-05-05T23:49:45.715Z,18.14
2023-05-05T23:52:12.811Z,17.91
2023-05-05T23:54:39.915Z,17.64
2023-05-05T23:57:06.626Z,17.84
2023-05-05T23:59:34.130Z,18.33
